Terminal Aerodrome Forecast
Issued by NWS

Home | Current Version | Previous Version | Text Only | Print | Product List | Glossary On
Versions: 1 2 3 4 5 6 7 8 9 10 11 12 13 14 15 16 17 18 19 20 21
000
FTUS42 KILM 031740
TAFCRE
TAF
KCRE 031740Z 0318/0418 19008KT P6SM VCSH SCT040 SCT080
     FM032000 20010KT P6SM VCTS SCT050CB BKN080
     FM040300 VRB03KT P6SM VCSH BKN080
     FM040800 VRB03KT 4SM BR SCT080 SCT120
     FM041400 VRB05KT P6SM VCSH BKN060
     FM041600 21008KT P6SM VCSH BKN060=

USA.gov is the U.S. government's official web portal to all federal, state and local government web resources and services.